createdAt,value
2023-01-29T00:02:03.572Z,70.60
2023-01-29T00:04:31.851Z,70.50
2023-01-29T00:07:00.247Z,71.20
2023-01-29T00:09:31.980Z,70.30
2023-01-29T00:12:00.089Z,70.00
2023-01-29T00:14:28.661Z,68.90
2023-01-29T00:16:56.808Z,68.60
2023-01-29T00:19:24.947Z,68.20
2023-01-29T00:21:53.168Z,69.00
2023-01-29T00:24:21.500Z,68.20
2023-01-29T00:26:51.131Z,67.50
2023-01-29T00:29:19.232Z,66.10
2023-01-29T00:31:48.078Z,67.20
2023-01-29T00:34:17.545Z,67.20
2023-01-29T00:36:46.380Z,66.10
2023-01-29T00:39:14.534Z,68.70
2023-01-29T00:42:00.294Z,69.30
2023-01-29T00:44:47.319Z,69.50
2023-01-29T00:47:29.334Z,72.40
2023-01-29T00:49:58.036Z,72.70
2023-01-29T00:52:26.647Z,72.70
2023-01-29T00:54:55.823Z,73.20
2023-01-29T00:57:24.036Z,73.80
2023-01-29T00:59:53.621Z,74.10
2023-01-29T01:02:39.391Z,74.60
2023-01-29T01:05:13.936Z,74.70
2023-01-29T01:07:42.177Z,74.80
2023-01-29T01:10:22.018Z,75.90
2023-01-29T01:12:53.535Z,75.00
2023-01-29T01:15:23.420Z,74.70
2023-01-29T01:17:54.683Z,74.70
2023-01-29T01:20:23.419Z,75.80
2023-01-29T01:22:54.267Z,75.20
2023-01-29T01:25:22.726Z,76.20
2023-01-29T01:27:53.964Z,76.10
2023-01-29T01:30:24.879Z,76.80
2023-01-29T01:32:53.375Z,75.60
2023-01-29T01:35:21.493Z,75.00
2023-01-29T01:37:50.325Z,74.50
2023-01-29T01:40:20.466Z,75.10
2023-01-29T01:42:50.230Z,74.20
2023-01-29T01:45:21.315Z,74.30
2023-01-29T01:47:53.437Z,74.40
2023-01-29T01:50:25.767Z,73.40
2023-01-29T01:52:57.199Z,73.70
2023-01-29T01:55:29.282Z,74.20
2023-01-29T01:58:04.053Z,73.40
2023-01-29T02:00:32.205Z,72.90
2023-01-29T02:03:21.222Z,73.50
2023-01-29T02:06:08.280Z,71.70
2023-01-29T02:09:01.065Z,74.00
2023-01-29T02:11:29.201Z,72.80
2023-01-29T02:13:58.596Z,73.70
2023-01-29T02:16:27.349Z,74.20
2023-01-29T02:18:58.411Z,73.00
2023-01-29T02:21:53.638Z,72.30
2023-01-29T02:24:51.648Z,70.20
2023-01-29T02:27:22.708Z,69.40
2023-01-29T02:30:02.917Z,71.00
2023-01-29T02:32:35.824Z,70.90
2023-01-29T02:35:42.577Z,72.30
2023-01-29T02:38:19.015Z,71.10
2023-01-29T02:40:55.250Z,71.20
2023-01-29T02:43:33.552Z,71.00
2023-01-29T02:46:09.465Z,71.20
2023-01-29T02:48:44.069Z,70.80
2023-01-29T02:51:19.431Z,70.20
2023-01-29T02:53:54.803Z,69.90
2023-01-29T02:56:28.239Z,69.70
2023-01-29T02:59:01.186Z,68.70
2023-01-29T03:01:34.688Z,67.60
2023-01-29T03:04:22.160Z,69.00
2023-01-29T03:06:54.930Z,70.40
2023-01-29T03:09:29.542Z,70.20
2023-01-29T03:12:28.490Z,69.70
2023-01-29T03:15:16.650Z,70.20
2023-01-29T03:18:01.580Z,72.40
2023-01-29T03:20:35.547Z,73.60
2023-01-29T03:23:10.185Z,72.10
2023-01-29T03:25:57.697Z,71.30
2023-01-29T03:28:47.785Z,71.40
2023-01-29T03:31:36.139Z,72.30
2023-01-29T03:34:10.203Z,70.70
2023-01-29T03:36:45.282Z,70.70
2023-01-29T03:39:16.524Z,70.00
2023-01-29T03:41:50.406Z,71.00
2023-01-29T03:44:24.935Z,71.60
2023-01-29T03:46:58.405Z,71.50
2023-01-29T03:49:34.432Z,70.70
2023-01-29T03:52:14.712Z,69.50
2023-01-29T03:54:57.483Z,68.20
2023-01-29T03:57:32.881Z,69.60
2023-01-29T04:00:08.183Z,68.50
2023-01-29T04:02:58.590Z,70.00
2023-01-29T04:05:32.635Z,70.50
2023-01-29T04:08:15.203Z,69.60
2023-01-29T04:10:46.256Z,71.20
2023-01-29T04:13:17.045Z,71.40
2023-01-29T04:15:50.600Z,71.60
2023-01-29T04:18:24.157Z,72.10
2023-01-29T04:21:09.428Z,71.70
2023-01-29T04:23:37.467Z,71.20
2023-01-29T04:26:24.100Z,71.00
2023-01-29T04:29:06.131Z,71.20
2023-01-29T04:31:38.397Z,72.80
2023-01-29T04:34:18.606Z,72.20
2023-01-29T04:36:58.471Z,72.90
2023-01-29T04:39:31.727Z,72.60
2023-01-29T04:42:10.981Z,72.80
2023-01-29T04:44:43.349Z,72.50
2023-01-29T04:47:21.075Z,72.40
2023-01-29T04:49:55.736Z,72.30
2023-01-29T04:52:33.523Z,72.30
2023-01-29T04:55:08.811Z,73.70
2023-01-29T04:57:46.269Z,71.80
2023-01-29T05:00:20.225Z,73.00
2023-01-29T05:02:49.746Z,73.30
2023-01-29T05:05:20.889Z,73.10
2023-01-29T05:07:50.772Z,72.40
2023-01-29T05:10:21.520Z,72.80
2023-01-29T05:12:53.975Z,71.90
2023-01-29T05:15:27.483Z,69.20
2023-01-29T05:18:01.792Z,70.60
2023-01-29T05:20:34.145Z,71.00
2023-01-29T05:23:03.964Z,71.30
2023-01-29T05:25:34.109Z,72.60
2023-01-29T05:28:08.321Z,72.20
2023-01-29T05:30:38.293Z,72.90
2023-01-29T05:33:12.625Z,73.20
2023-01-29T05:35:40.695Z,73.40
2023-01-29T05:38:10.455Z,74.10
2023-01-29T05:40:39.059Z,73.20
2023-01-29T05:43:13.973Z,73.30
2023-01-29T05:45:42.072Z,73.50
2023-01-29T05:48:10.183Z,73.50
2023-01-29T05:50:38.271Z,72.80
2023-01-29T05:53:06.732Z,72.10
2023-01-29T05:55:36.239Z,71.90
2023-01-29T05:58:05.956Z,72.00
2023-01-29T06:00:34.192Z,73.90
2023-01-29T06:03:02.335Z,72.90
2023-01-29T06:05:30.486Z,73.40
2023-01-29T06:07:58.625Z,74.00
2023-01-29T06:10:26.724Z,75.10
2023-01-29T06:12:56.155Z,75.10
2023-01-29T06:15:26.429Z,75.60
2023-01-29T06:17:54.873Z,75.60
2023-01-29T06:20:23.041Z,76.00
2023-01-29T06:22:51.147Z,76.80
2023-01-29T06:25:19.441Z,76.10
2023-01-29T06:27:47.515Z,75.70
2023-01-29T06:30:18.005Z,76.70
2023-01-29T06:32:46.528Z,76.70
2023-01-29T06:35:14.760Z,76.90
2023-01-29T06:37:42.875Z,77.30
2023-01-29T06:40:12.229Z,78.00
2023-01-29T06:42:40.321Z,76.90
2023-01-29T06:45:09.604Z,76.80
2023-01-29T06:47:39.104Z,76.40
2023-01-29T06:50:07.882Z,74.60
2023-01-29T06:52:36.030Z,75.30
2023-01-29T06:55:04.866Z,76.70
2023-01-29T06:57:33.044Z,75.90
2023-01-29T07:00:01.180Z,76.10
2023-01-29T07:02:29.352Z,74.70
2023-01-29T07:04:58.860Z,75.80
2023-01-29T07:07:27.007Z,75.40
2023-01-29T07:09:55.376Z,76.10
2023-01-29T07:12:23.489Z,75.50
2023-01-29T07:14:51.521Z,76.20
2023-01-29T07:17:20.587Z,76.80
2023-01-29T07:19:48.648Z,75.20
2023-01-29T07:22:18.081Z,73.90
2023-01-29T07:24:46.136Z,74.50
2023-01-29T07:27:14.344Z,75.50
2023-01-29T07:29:42.657Z,75.90
2023-01-29T07:32:10.791Z,76.00
2023-01-29T07:34:38.951Z,74.70
2023-01-29T07:37:07.187Z,75.90
2023-01-29T07:39:36.689Z,79.10
2023-01-29T07:42:04.847Z,77.40
2023-01-29T07:44:32.998Z,77.60
2023-01-29T07:47:01.122Z,78.70
2023-01-29T07:49:30.351Z,78.30
2023-01-29T07:51:58.448Z,79.10
2023-01-29T07:54:26.541Z,78.40
2023-01-29T07:56:56.132Z,79.00
2023-01-29T07:59:24.214Z,79.00
2023-01-29T08:01:52.413Z,78.50
2023-01-29T08:04:20.767Z,77.60
2023-01-29T08:06:48.984Z,77.10
2023-01-29T08:09:17.237Z,78.00
2023-01-29T08:11:45.375Z,78.00
2023-01-29T08:14:14.826Z,77.70
2023-01-29T08:16:43.056Z,77.80
2023-01-29T08:19:11.124Z,77.50
2023-01-29T08:21:39.213Z,77.50
2023-01-29T08:24:08.168Z,78.00
2023-01-29T08:26:36.278Z,76.70
2023-01-29T08:29:04.409Z,77.10
2023-01-29T08:31:34.069Z,77.10
2023-01-29T08:34:02.167Z,77.80
2023-01-29T08:36:30.433Z,77.80
2023-01-29T08:38:59.164Z,77.60
2023-01-29T08:41:27.263Z,76.50
2023-01-29T08:43:55.388Z,77.60
2023-01-29T08:46:23.510Z,76.40
2023-01-29T08:48:53.114Z,84.50
2023-01-29T08:51:21.832Z,75.70
2023-01-29T08:53:50.748Z,75.80
2023-01-29T08:56:19.717Z,72.80
2023-01-29T08:58:47.792Z,73.80
2023-01-29T09:01:16.119Z,75.00
2023-01-29T09:03:44.899Z,75.70
2023-01-29T09:06:15.846Z,77.20
2023-01-29T09:08:43.996Z,75.80
2023-01-29T09:11:12.312Z,76.10
2023-01-29T09:13:40.395Z,76.90
2023-01-29T09:16:09.040Z,76.00
2023-01-29T09:18:37.171Z,76.30
2023-01-29T09:21:05.774Z,73.80
2023-01-29T09:23:35.246Z,74.40
2023-01-29T09:26:03.320Z,74.70
2023-01-29T09:28:31.496Z,74.60
2023-01-29T09:31:02.739Z,74.60
2023-01-29T09:33:32.410Z,72.80
2023-01-29T09:36:00.581Z,72.90
2023-01-29T09:38:28.992Z,73.50
2023-01-29T09:41:06.923Z,73.70
2023-01-29T09:43:46.882Z,73.20
2023-01-29T09:46:20.519Z,72.80
2023-01-29T09:48:53.737Z,73.00
2023-01-29T09:51:29.520Z,73.70
2023-01-29T09:54:08.089Z,75.10
2023-01-29T09:56:37.631Z,75.20
2023-01-29T09:59:05.907Z,74.20
2023-01-29T10:01:41.551Z,72.60
2023-01-29T10:04:47.325Z,72.60
2023-01-29T10:07:30.621Z,71.50
2023-01-29T10:10:37.336Z,70.90
2023-01-29T10:13:21.030Z,69.70
2023-01-29T10:16:00.623Z,71.60
2023-01-29T10:18:48.725Z,69.60
2023-01-29T10:21:31.142Z,71.50
2023-01-29T10:24:09.347Z,70.50
2023-01-29T10:26:38.690Z,69.90
2023-01-29T10:29:09.267Z,67.60
2023-01-29T10:31:40.133Z,67.70
2023-01-29T10:34:13.967Z,68.10
2023-01-29T10:36:45.230Z,67.40
2023-01-29T10:39:19.196Z,70.30
2023-01-29T10:42:03.500Z,68.40
2023-01-29T10:44:43.509Z,68.00
2023-01-29T10:47:48.448Z,67.50
2023-01-29T10:50:24.782Z,67.80
2023-01-29T10:53:11.921Z,68.10
2023-01-29T10:55:53.212Z,69.40
2023-01-29T10:58:31.339Z,69.80
2023-01-29T11:01:01.446Z,69.60
2023-01-29T11:03:31.585Z,68.60
2023-01-29T11:06:08.573Z,68.30
2023-01-29T11:08:43.711Z,68.00
2023-01-29T11:11:15.796Z,67.60
2023-01-29T11:13:48.412Z,69.60
2023-01-29T11:16:17.995Z,69.00
2023-01-29T11:18:58.039Z,67.60
2023-01-29T11:21:27.452Z,66.70
2023-01-29T11:24:17.083Z,65.90
2023-01-29T11:26:47.680Z,65.70
2023-01-29T11:29:48.988Z,64.30
2023-01-29T11:32:27.212Z,68.70
2023-01-29T11:35:00.841Z,68.20
2023-01-29T11:37:37.852Z,68.80
2023-01-29T11:40:40.670Z,63.60
2023-01-29T11:43:14.743Z,66.60
2023-01-29T11:45:42.977Z,65.80
2023-01-29T11:48:17.382Z,65.00
2023-01-29T11:50:52.093Z,64.10
2023-01-29T11:53:28.264Z,60.90
2023-01-29T11:55:57.318Z,64.10
2023-01-29T11:58:30.714Z,60.60
2023-01-29T12:01:00.931Z,61.00
2023-01-29T12:03:38.588Z,60.10
2023-01-29T12:06:10.003Z,64.10
2023-01-29T12:08:40.006Z,62.10
2023-01-29T12:11:14.838Z,60.10
2023-01-29T12:13:44.246Z,59.80
2023-01-29T12:16:19.073Z,61.60
2023-01-29T12:18:54.251Z,61.60
2023-01-29T12:21:28.098Z,61.30
2023-01-29T12:24:00.431Z,57.80
2023-01-29T12:26:34.470Z,58.50
2023-01-29T12:29:17.600Z,61.10
2023-01-29T12:31:51.195Z,62.30
2023-01-29T12:34:28.471Z,62.20
2023-01-29T12:37:02.010Z,59.90
2023-01-29T12:39:30.197Z,62.40
2023-01-29T12:42:01.116Z,62.40
2023-01-29T12:44:34.623Z,56.00
2023-01-29T12:47:08.102Z,57.60
2023-01-29T12:49:40.640Z,58.60
2023-01-29T12:52:13.879Z,59.60
2023-01-29T12:54:48.839Z,62.00
2023-01-29T12:57:24.138Z,59.20
2023-01-29T12:59:56.415Z,58.40
2023-01-29T13:02:32.671Z,58.40
2023-01-29T13:05:05.973Z,59.00
2023-01-29T13:07:40.176Z,58.00
2023-01-29T13:10:13.676Z,59.60
2023-01-29T13:12:52.665Z,59.40
2023-01-29T13:15:29.079Z,59.30
2023-01-29T13:18:03.055Z,59.50
2023-01-29T13:20:35.053Z,60.30
2023-01-29T13:23:24.917Z,59.60
2023-01-29T13:25:53.379Z,58.80
2023-01-29T13:28:28.040Z,56.90
2023-01-29T13:31:24.609Z,58.60
2023-01-29T13:34:01.140Z,57.20
2023-01-29T13:36:31.929Z,56.00
2023-01-29T13:39:04.406Z,58.20
2023-01-29T13:41:35.444Z,57.60
2023-01-29T13:44:05.588Z,56.70
2023-01-29T13:46:34.050Z,59.20
2023-01-29T13:49:05.020Z,56.10
2023-01-29T13:51:37.968Z,54.70
2023-01-29T13:54:10.507Z,57.10
2023-01-29T13:56:59.223Z,53.00
2023-01-29T13:59:53.235Z,55.10
2023-01-29T14:02:24.750Z,54.80
2023-01-29T14:04:53.075Z,52.80
2023-01-29T14:07:50.101Z,54.90
2023-01-29T14:10:21.360Z,53.90
2023-01-29T14:12:52.080Z,55.00
2023-01-29T14:15:32.580Z,54.60
2023-01-29T14:18:20.371Z,56.50
2023-01-29T14:21:02.382Z,54.20
2023-01-29T14:23:46.108Z,57.30
2023-01-29T14:26:24.359Z,56.60
2023-01-29T14:29:02.516Z,57.30
2023-01-29T14:31:47.899Z,55.80
2023-01-29T14:34:30.551Z,57.50
2023-01-29T14:37:02.609Z,57.60
2023-01-29T14:39:36.688Z,56.80
2023-01-29T14:42:17.039Z,57.90
2023-01-29T14:45:11.303Z,56.60
2023-01-29T14:48:00.726Z,57.10
2023-01-29T14:50:51.580Z,57.50
2023-01-29T14:53:28.653Z,57.30
2023-01-29T14:56:02.175Z,57.40
2023-01-29T14:58:39.480Z,55.60
2023-01-29T15:01:17.058Z,56.60
2023-01-29T15:03:48.917Z,56.50
2023-01-29T15:06:21.472Z,53.50
2023-01-29T15:08:56.312Z,53.40
2023-01-29T15:11:36.959Z,52.80
2023-01-29T15:14:18.046Z,52.40
2023-01-29T15:16:52.229Z,51.60
2023-01-29T15:19:28.117Z,51.70
2023-01-29T15:22:11.543Z,51.60
2023-01-29T15:24:41.451Z,51.50
2023-01-29T15:27:15.995Z,51.30
2023-01-29T15:29:48.278Z,51.90
2023-01-29T15:32:28.588Z,50.80
2023-01-29T15:34:58.020Z,51.50
2023-01-29T15:37:31.695Z,51.40
2023-01-29T15:40:00.679Z,51.10
2023-01-29T15:42:42.397Z,51.00
2023-01-29T15:45:27.413Z,51.70
2023-01-29T15:47:59.625Z,52.10
2023-01-29T15:50:27.731Z,51.60
2023-01-29T15:52:59.296Z,51.60
2023-01-29T15:55:28.504Z,51.60
2023-01-29T15:57:58.582Z,52.20
2023-01-29T16:00:28.657Z,52.80
2023-01-29T16:02:57.359Z,51.90
2023-01-29T16:05:28.362Z,52.00
2023-01-29T16:07:57.940Z,52.50
2023-01-29T16:10:29.453Z,52.70
2023-01-29T16:12:59.661Z,52.50
2023-01-29T16:15:33.587Z,53.20
2023-01-29T16:18:03.379Z,52.80
2023-01-29T16:20:41.647Z,52.80
2023-01-29T16:23:18.407Z,52.70
2023-01-29T16:25:46.911Z,52.70
2023-01-29T16:28:17.476Z,53.00
2023-01-29T16:30:45.735Z,53.20
2023-01-29T16:33:17.104Z,53.20
2023-01-29T16:35:52.021Z,53.30
2023-01-29T16:38:28.255Z,53.80
2023-01-29T16:41:15.373Z,53.20
2023-01-29T16:43:54.844Z,53.30
2023-01-29T16:46:29.037Z,52.90
2023-01-29T16:48:57.164Z,53.10
2023-01-29T16:51:27.682Z,53.40
2023-01-29T16:54:01.160Z,53.50
2023-01-29T16:56:33.310Z,53.80
2023-01-29T16:59:04.687Z,54.00
2023-01-29T17:01:35.302Z,54.30
2023-01-29T17:04:12.696Z,54.60
2023-01-29T17:06:43.321Z,54.90
2023-01-29T17:09:22.461Z,55.20
2023-01-29T17:11:56.702Z,55.60
2023-01-29T17:14:27.249Z,55.80
2023-01-29T17:16:57.118Z,56.90
2023-01-29T17:19:25.877Z,56.60
2023-01-29T17:21:54.135Z,56.80
2023-01-29T17:24:22.180Z,57.10
2023-01-29T17:26:51.580Z,57.30
2023-01-29T17:29:24.400Z,57.60
2023-01-29T17:31:54.921Z,58.30
2023-01-29T17:34:25.069Z,57.80
2023-01-29T17:36:53.525Z,58.10
2023-01-29T17:39:23.211Z,58.30
2023-01-29T17:41:53.895Z,58.60
2023-01-29T17:44:22.689Z,59.40
2023-01-29T17:46:51.077Z,58.70
2023-01-29T17:49:24.445Z,58.90
2023-01-29T17:51:53.138Z,59.00
2023-01-29T17:54:21.590Z,59.10
2023-01-29T17:56:50.281Z,59.20
2023-01-29T17:59:19.680Z,59.20
2023-01-29T18:01:48.628Z,59.40
2023-01-29T18:04:17.083Z,59.60
2023-01-29T18:06:49.091Z,59.80
2023-01-29T18:09:20.530Z,60.00
2023-01-29T18:11:49.774Z,59.90
2023-01-29T18:14:18.067Z,60.20
2023-01-29T18:16:46.890Z,60.50
2023-01-29T18:19:19.922Z,60.30
2023-01-29T18:21:49.604Z,60.00
2023-01-29T18:24:17.825Z,59.90
2023-01-29T18:26:45.978Z,60.10
2023-01-29T18:29:14.435Z,60.10
2023-01-29T18:31:42.527Z,60.20
2023-01-29T18:34:10.652Z,60.10
2023-01-29T18:36:38.768Z,60.10
2023-01-29T18:39:08.248Z,60.30
2023-01-29T18:41:36.464Z,60.30
2023-01-29T18:44:04.651Z,60.40
2023-01-29T18:46:33.457Z,60.30
2023-01-29T18:49:01.504Z,61.10
2023-01-29T18:51:29.606Z,60.40
2023-01-29T18:53:57.733Z,60.30
2023-01-29T18:56:27.295Z,61.00
2023-01-29T18:58:56.413Z,59.90
2023-01-29T19:01:25.161Z,59.90
2023-01-29T19:03:53.937Z,61.10
2023-01-29T19:06:22.049Z,60.40
2023-01-29T19:08:50.113Z,60.30
2023-01-29T19:11:18.691Z,60.50
2023-01-29T19:13:49.745Z,59.90
2023-01-29T19:16:18.703Z,61.20
2023-01-29T19:18:46.812Z,61.10
2023-01-29T19:21:16.967Z,65.30
2023-01-29T19:23:45.836Z,66.00
2023-01-29T19:26:14.123Z,64.30
2023-01-29T19:28:42.683Z,63.20
2023-01-29T19:31:12.180Z,63.90
2023-01-29T19:33:40.674Z,63.80
2023-01-29T19:36:09.451Z,63.10
2023-01-29T19:38:38.754Z,62.10
2023-01-29T19:41:07.181Z,61.30
2023-01-29T19:43:35.351Z,60.40
2023-01-29T19:46:03.751Z,61.10
2023-01-29T19:48:33.532Z,60.80
2023-01-29T19:51:04.474Z,60.30
2023-01-29T19:53:32.994Z,60.70
2023-01-29T19:56:03.004Z,62.90
2023-01-29T19:58:31.452Z,63.30
2023-01-29T20:01:00.942Z,62.30
2023-01-29T20:03:30.681Z,61.50
2023-01-29T20:06:04.778Z,61.30
2023-01-29T20:08:34.195Z,61.10
2023-01-29T20:11:02.591Z,59.70
2023-01-29T20:13:30.642Z,59.60
2023-01-29T20:16:02.873Z,61.10
2023-01-29T20:18:31.092Z,61.00
2023-01-29T20:20:59.503Z,60.70
2023-01-29T20:23:37.833Z,62.00
2023-01-29T20:26:06.854Z,62.60
2023-01-29T20:28:35.802Z,61.40
2023-01-29T20:31:04.862Z,60.60
2023-01-29T20:33:33.647Z,61.00
2023-01-29T20:36:03.637Z,62.30
2023-01-29T20:38:34.704Z,62.00
2023-01-29T20:41:07.256Z,61.30
2023-01-29T20:43:36.031Z,61.70
2023-01-29T20:46:04.795Z,62.40
2023-01-29T20:48:33.317Z,62.00
2023-01-29T20:51:06.288Z,61.50
2023-01-29T20:53:35.935Z,61.90
2023-01-29T20:56:04.804Z,61.90
2023-01-29T20:58:33.379Z,62.60
2023-01-29T21:01:01.712Z,62.30
2023-01-29T21:03:29.840Z,64.60
2023-01-29T21:05:59.187Z,63.70
2023-01-29T21:08:27.388Z,63.60
2023-01-29T21:10:56.890Z,65.40
2023-01-29T21:13:24.984Z,64.70
2023-01-29T21:15:53.056Z,63.90
2023-01-29T21:18:21.178Z,64.70
2023-01-29T21:20:50.670Z,64.20
2023-01-29T21:23:19.025Z,64.60
2023-01-29T21:25:48.019Z,63.60
2023-01-29T21:28:17.613Z,63.80
2023-01-29T21:30:46.473Z,64.20
2023-01-29T21:33:14.587Z,63.40
2023-01-29T21:35:42.688Z,63.50
2023-01-29T21:38:10.737Z,65.20
2023-01-29T21:40:38.818Z,64.10
2023-01-29T21:43:11.781Z,63.60
2023-01-29T21:45:41.823Z,64.40
2023-01-29T21:48:11.139Z,63.30
2023-01-29T21:50:39.730Z,63.20
2023-01-29T21:53:07.873Z,63.00
2023-01-29T21:55:36.029Z,63.40
2023-01-29T21:58:04.393Z,63.70
2023-01-29T22:00:32.696Z,64.10
2023-01-29T22:03:02.334Z,64.40
2023-01-29T22:05:30.460Z,64.30
2023-01-29T22:07:58.681Z,64.10
2023-01-29T22:10:27.567Z,64.20
2023-01-29T22:12:56.058Z,64.40
2023-01-29T22:15:24.474Z,64.70
2023-01-29T22:17:52.710Z,64.60
2023-01-29T22:20:29.490Z,64.70
2023-01-29T22:22:59.364Z,65.20
2023-01-29T22:25:27.693Z,64.00
2023-01-29T22:27:55.984Z,63.90
2023-01-29T22:30:24.142Z,63.50
2023-01-29T22:32:52.529Z,63.30
2023-01-29T22:35:22.031Z,62.40
2023-01-29T22:37:50.080Z,62.00
2023-01-29T22:40:18.900Z,61.80
2023-01-29T22:42:47.240Z,61.90
2023-01-29T22:45:16.219Z,62.10
2023-01-29T22:47:44.315Z,62.10
2023-01-29T22:50:13.631Z,62.00
2023-01-29T22:52:53.228Z,62.60
2023-01-29T22:55:21.305Z,63.70
2023-01-29T22:57:49.813Z,63.30
2023-01-29T23:00:19.219Z,63.90
2023-01-29T23:02:48.127Z,64.70
2023-01-29T23:05:16.319Z,65.30
2023-01-29T23:07:46.071Z,65.70
2023-01-29T23:10:16.021Z,65.80
2023-01-29T23:12:44.376Z,66.00
2023-01-29T23:15:12.571Z,67.10
2023-01-29T23:17:40.662Z,67.00
2023-01-29T23:20:10.869Z,67.80
2023-01-29T23:22:38.987Z,68.00
2023-01-29T23:25:09.391Z,68.20
2023-01-29T23:27:36.483Z,68.30
2023-01-29T23:30:05.639Z,68.20
2023-01-29T23:32:34.509Z,68.30
2023-01-29T23:35:02.586Z,68.70
2023-01-29T23:37:30.708Z,69.30
2023-01-29T23:39:58.775Z,69.10
2023-01-29T23:42:28.276Z,68.30
2023-01-29T23:44:56.418Z,68.10
2023-01-29T23:47:24.557Z,67.90
2023-01-29T23:49:53.165Z,67.90
2023-01-29T23:52:21.218Z,67.90
2023-01-29T23:54:49.329Z,67.70
2023-01-29T23:57:17.420Z,67.50
2023-01-29T23:59:46.950Z,67.60
